Time,TemperatureF,DewpointF,PressureIn,WindDirection,WindDirectionDegrees,WindSpeedMPH,WindSpeedGustMPH,Humidity,HourlyPrecipIn,Conditions,Clouds,dailyrainin,SoftwareType,DateUTC
2013-09-12 00:21:00,51.0,48.0,-100.00,North,0,0.0,0.0,91,-99.99,,,-99.99,,2013-09-12 06:21:00,
2013-09-12 00:33:00,51.0,48.0,-100.00,North,0,0.0,0.0,91,-99.99,,,-99.99,,2013-09-12 06:33:00,
2013-09-12 00:52:00,50.0,48.0,-100.00,North,0,0.0,0.0,92,-99.99,,,-99.99,,2013-09-12 06:52:00,
2013-09-12 01:21:00,50.0,48.0,-100.00,North,0,0.0,0.0,91,-99.99,,,-99.99,,2013-09-12 07:21:00,
2013-09-12 01:32:00,50.0,48.0,-100.00,North,0,0.0,0.0,91,-99.99,,,-99.99,,2013-09-12 07:32:00,
2013-09-12 02:22:00,51.0,47.0,-100.00,North,0,0.0,0.0,88,-99.99,,,-99.99,,2013-09-12 08:22:00,
2013-09-12 02:32:00,51.0,47.0,-100.00,North,0,0.0,0.0,88,-99.99,,,-99.99,,2013-09-12 08:32:00,
2013-09-12 03:21:00,49.0,47.0,-100.00,North,0,0.0,0.0,93,-99.99,,,-99.99,,2013-09-12 09:21:00,
2013-09-12 03:33:00,49.0,47.0,-100.00,North,0,0.0,0.0,93,-99.99,,,-99.99,,2013-09-12 09:33:00,
2013-09-12 04:23:00,49.0,48.0,-100.00,North,0,0.0,0.0,94,-99.99,,,-99.99,,2013-09-12 10:23:00,
2013-09-12 04:33:00,49.0,48.0,-100.00,North,0,0.0,0.0,94,-99.99,,,-99.99,,2013-09-12 10:33:00,
2013-09-12 04:53:00,49.0,48.0,-100.00,North,0,0.0,0.0,94,-99.99,,,-99.99,,2013-09-12 10:53:00,
2013-09-12 05:22:00,49.0,48.0,-100.00,North,0,0.0,0.0,94,-99.99,,,-99.99,,2013-09-12 11:22:00,
2013-09-12 05:33:00,49.0,48.0,-100.00,North,0,0.0,0.0,94,-99.99,,,-99.99,,2013-09-12 11:33:00,
2013-09-12 06:21:00,47.0,44.0,-100.00,North,0,0.0,0.0,89,-99.99,,,-99.99,,2013-09-12 12:21:00,
2013-09-12 06:31:00,47.0,44.0,-100.00,North,0,0.0,0.0,89,-99.99,,,-99.99,,2013-09-12 12:31:00,
2013-09-12 06:52:00,49.0,42.0,-100.00,North,0,0.0,0.0,77,-99.99,,,-99.99,,2013-09-12 12:52:00,
2013-09-12 07:22:00,46.0,44.0,-100.00,North,0,0.0,0.0,90,-99.99,,,-99.99,,2013-09-12 13:22:00,
2013-09-12 07:32:00,46.0,44.0,-100.00,North,0,0.0,0.0,90,-99.99,,,-99.99,,2013-09-12 13:32:00,
2013-09-12 08:22:00,46.0,44.0,-100.00,North,0,0.0,0.0,91,-99.99,,,-99.99,,2013-09-12 14:22:00,
2013-09-12 08:32:00,46.0,44.0,-100.00,North,0,0.0,0.0,91,-99.99,,,-99.99,,2013-09-12 14:32:00,
2013-09-12 09:22:00,50.0,42.0,-100.00,North,0,0.0,0.0,72,-99.99,,,-99.99,,2013-09-12 15:22:00,
2013-09-12 09:33:00,50.0,42.0,-100.00,North,0,0.0,0.0,72,-99.99,,,-99.99,,2013-09-12 15:33:00,
2013-09-12 10:23:00,54.0,43.0,-100.00,North,0,0.0,0.0,63,-99.99,,,-99.99,,2013-09-12 16:23:00,
2013-09-12 10:33:00,54.0,43.0,-100.00,North,0,0.0,0.0,63,-99.99,,,-99.99,,2013-09-12 16:33:00,
2013-09-12 11:23:00,53.0,44.0,-100.00,North,0,0.0,0.0,71,-99.99,,,-99.99,,2013-09-12 17:23:00,
2013-09-12 11:33:00,53.0,44.0,-100.00,North,0,0.0,0.0,71,-99.99,,,-99.99,,2013-09-12 17:33:00,
2013-09-12 12:22:00,54.0,45.0,-100.00,North,0,0.0,0.0,71,-99.99,,,-99.99,,2013-09-12 18:22:00,
2013-09-12 12:32:00,54.0,45.0,-100.00,North,0,0.0,0.0,71,-99.99,,,-99.99,,2013-09-12 18:32:00,
2013-09-12 13:22:00,46.0,43.0,-100.00,North,0,0.0,0.0,88,-99.99,,,-99.99,,2013-09-12 19:22:00,
2013-09-12 13:32:00,46.0,43.0,-100.00,North,0,0.0,0.0,88,-99.99,,,-99.99,,2013-09-12 19:32:00,
2013-09-12 14:22:00,54.0,48.0,-100.00,North,0,0.0,0.0,81,-99.99,,,-99.99,,2013-09-12 20:22:00,
2013-09-12 14:32:00,54.0,48.0,-100.00,North,0,0.0,0.0,81,-99.99,,,-99.99,,2013-09-12 20:32:00,
2013-09-12 15:21:00,56.0,46.0,-100.00,North,0,0.0,0.0,69,-99.99,,,-99.99,,2013-09-12 21:21:00,
2013-09-12 15:34:00,56.0,46.0,-100.00,North,0,0.0,0.0,69,-99.99,,,-99.99,,2013-09-12 21:34:00,
2013-09-12 16:24:00,59.0,45.0,-100.00,North,0,0.0,0.0,59,-99.99,,,-99.99,,2013-09-12 22:24:00,
2013-09-12 16:33:00,59.0,45.0,-100.00,North,0,0.0,0.0,59,-99.99,,,-99.99,,2013-09-12 22:33:00,
2013-09-12 17:23:00,60.0,45.0,-100.00,North,0,0.0,0.0,58,-99.99,,,-99.99,,2013-09-12 23:23:00,
2013-09-12 17:34:00,60.0,45.0,-100.00,North,0,0.0,0.0,58,-99.99,,,-99.99,,2013-09-12 23:34:00,
2013-09-12 18:22:00,55.0,47.0,-100.00,North,0,0.0,0.0,74,-99.99,,,-99.99,,2013-09-13 00:22:00,
2013-09-12 18:32:00,55.0,47.0,-100.00,North,0,0.0,0.0,74,-99.99,,,-99.99,,2013-09-13 00:32:00,
2013-09-12 19:22:00,58.0,45.0,-100.00,North,0,0.0,0.0,61,-99.99,,,-99.99,,2013-09-13 01:22:00,
2013-09-12 19:32:00,58.0,45.0,-100.00,North,0,0.0,0.0,61,-99.99,,,-99.99,,2013-09-13 01:32:00,
2013-09-12 20:22:00,56.0,46.0,-100.00,North,0,0.0,0.0,68,-99.99,,,-99.99,,2013-09-13 02:22:00,
2013-09-12 20:32:00,56.0,46.0,-100.00,North,0,0.0,0.0,68,-99.99,,,-99.99,,2013-09-13 02:32:00,
2013-09-12 21:22:00,55.0,45.0,-100.00,North,0,0.0,0.0,70,-99.99,,,-99.99,,2013-09-13 03:22:00,
2013-09-12 21:34:00,55.0,45.0,-100.00,North,0,0.0,0.0,70,-99.99,,,-99.99,,2013-09-13 03:34:00,
2013-09-12 22:24:00,54.0,46.0,-100.00,North,0,0.0,0.0,73,-99.99,,,-99.99,,2013-09-13 04:24:00,
2013-09-12 22:34:00,54.0,46.0,-100.00,North,0,0.0,0.0,73,-99.99,,,-99.99,,2013-09-13 04:34:00,
2013-09-12 23:22:00,53.0,46.0,-100.00,North,0,0.0,0.0,78,-99.99,,,-99.99,,2013-09-13 05:22:00,
2013-09-12 23:33:00,53.0,46.0,-100.00,North,0,0.0,0.0,78,-99.99,,,-99.99,,2013-09-13 05:33:00,